Time;durP1;ratioP1;P1;durP2;ratioP2;P2;SDS_P1;SDS_P2;PMS_P1;PMS_P2;Temp;Humidity;BMP_temperature;BMP_pressure;BME280_temperature;BME280_humidity;BME280_pressure;Samples;Min_cycle;Max_cycle;Signal;HPM_P1;HPM_P2
2022/03/14 00:01:06;;;;;;;9.25;4.35;;;;;;;;;;6281897;22;20023;-87
2022/03/14 00:03:50;;;;;;;10.90;4.50;;;;;;;;;;6253286;22;20085;-87
2022/03/14 00:06:18;;;;;;;9.48;4.25;;;;;;;;;;6279995;22;20043;-87
2022/03/14 00:08:47;;;;;;;12.43;4.68;;;;;;;;;;6280722;22;20019;-88
2022/03/14 00:11:15;;;;;;;10.65;4.65;;;;;;;;;;6280540;22;20259;-87
2022/03/14 00:13:46;;;;;;;10.60;4.45;;;;;;;;;;6279393;22;20015;-87
2022/03/14 00:16:25;;;;;;;7.00;3.97;;;;;;;;;;6253981;22;20106;-87
2022/03/14 00:18:57;;;;;;;8.32;4.00;;;;;;;;;;6252290;22;20027;-86
2022/03/14 00:21:26;;;;;;;15.75;4.80;;;;;;;;;;6281937;22;20431;-86
2022/03/14 00:23:57;;;;;;;10.95;4.05;;;;;;;;;;6243055;22;20023;-87
2022/03/14 00:26:25;;;;;;;12.55;4.35;;;;;;;;;;6280650;22;20050;-86
2022/03/14 00:28:54;;;;;;;10.40;4.93;;;;;;;;;;6279383;22;20098;-86
2022/03/14 00:31:22;;;;;;;9.80;4.43;;;;;;;;;;6280065;22;20018;-86
2022/03/14 00:33:51;;;;;;;9.13;4.40;;;;;;;;;;6278675;22;20480;-88
2022/03/14 00:36:19;;;;;;;10.07;4.47;;;;;;;;;;6279463;22;20090;-86
2022/03/14 00:38:46;;;;;;;11.35;4.90;;;;;;;;;;6280916;22;20015;-88
2022/03/14 00:41:16;;;;;;;9.13;4.55;;;;;;;;;;6254360;22;20099;-89
2022/03/14 00:43:45;;;;;;;11.32;4.20;;;;;;;;;;6280254;22;20069;-88
2022/03/14 00:46:14;;;;;;;13.00;5.05;;;;;;;;;;6281910;22;20090;-90
2022/03/14 00:48:43;;;;;;;9.07;4.60;;;;;;;;;;6255919;22;20072;-90
2022/03/14 00:51:13;;;;;;;8.95;4.55;;;;;;;;;;6281733;22;20091;-88
2022/03/14 00:53:43;;;;;;;9.43;3.90;;;;;;;;;;6270427;22;20069;-89
2022/03/14 00:56:13;;;;;;;12.23;5.00;;;;;;;;;;6283668;22;20102;-90
2022/03/14 00:58:42;;;;;;;9.75;4.68;;;;;;;;;;6256344;22;20093;-89
2022/03/14 01:01:10;;;;;;;11.80;4.28;;;;;;;;;;6282475;22;20027;-89
2022/03/14 01:03:38;;;;;;;8.68;4.07;;;;;;;;;;6256243;22;20016;-89
2022/03/14 01:06:06;;;;;;;7.75;4.20;;;;;;;;;;6283245;22;20455;-90
2022/03/14 01:08:34;;;;;;;10.05;4.32;;;;;;;;;;6282288;22;20018;-87
2022/03/14 01:11:03;;;;;;;10.88;4.32;;;;;;;;;;6253710;22;20595;-89
2022/03/14 01:13:30;;;;;;;8.23;4.00;;;;;;;;;;6282121;22;20027;-88
2022/03/14 01:16:01;;;;;;;9.73;4.32;;;;;;;;;;6282931;22;20025;-89
2022/03/14 01:18:28;;;;;;;9.55;4.35;;;;;;;;;;6281849;22;20477;-89
2022/03/14 01:20:56;;;;;;;14.60;5.15;;;;;;;;;;6282817;22;20016;-89
2022/03/14 01:23:24;;;;;;;14.55;4.97;;;;;;;;;;6282645;22;20305;-90
2022/03/14 01:25:52;;;;;;;11.30;4.47;;;;;;;;;;6282753;22;20022;-90
2022/03/14 01:28:20;;;;;;;9.18;4.15;;;;;;;;;;6230937;22;20020;-90
2022/03/14 01:30:51;;;;;;;9.32;4.40;;;;;;;;;;6282720;22;20042;-90
2022/03/14 01:33:19;;;;;;;9.60;4.22;;;;;;;;;;6282351;22;20028;-90
2022/03/14 01:35:47;;;;;;;9.38;4.15;;;;;;;;;;6255906;22;20097;-90
2022/03/14 01:38:15;;;;;;;10.88;4.45;;;;;;;;;;6282123;22;20338;-89
2022/03/14 01:40:43;;;;;;;9.13;4.63;;;;;;;;;;6282370;22;20047;-89
2022/03/14 01:43:12;;;;;;;11.52;4.22;;;;;;;;;;6282723;22;20023;-89
2022/03/14 01:45:39;;;;;;;9.98;3.95;;;;;;;;;;6282540;22;20561;-89
2022/03/14 01:48:07;;;;;;;9.43;4.63;;;;;;;;;;6282611;22;20027;-88
2022/03/14 01:50:35;;;;;;;8.98;4.22;;;;;;;;;;6277040;22;20027;-85
2022/03/14 01:53:03;;;;;;;12.18;4.80;;;;;;;;;;6276611;22;20102;-84
2022/03/14 01:55:31;;;;;;;7.28;3.63;;;;;;;;;;6280417;22;20177;-91
2022/03/14 01:58:03;;;;;;;9.10;4.47;;;;;;;;;;6256126;22;20023;-91
2022/03/14 02:00:31;;;;;;;12.25;5.20;;;;;;;;;;6282375;22;20020;-92
2022/03/14 02:02:59;;;;;;;8.57;3.65;;;;;;;;;;6282818;22;20101;-92
2022/03/14 02:05:28;;;;;;;9.40;4.55;;;;;;;;;;6282103;22;20073;-91
2022/03/14 02:07:57;;;;;;;12.73;4.88;;;;;;;;;;6281153;22;20047;-92
2022/03/14 02:10:25;;;;;;;8.70;4.50;;;;;;;;;;6255755;22;20114;-91
2022/03/14 02:12:53;;;;;;;11.38;4.28;;;;;;;;;;6232356;23;20015;-91
2022/03/14 02:15:21;;;;;;;11.07;4.68;;;;;;;;;;6225765;23;20363;-91
2022/03/14 02:17:49;;;;;;;12.20;4.75;;;;;;;;;;6224357;23;20552;-88
2022/03/14 02:20:17;;;;;;;9.55;4.78;;;;;;;;;;6248447;23;20023;-87
2022/03/14 02:22:45;;;;;;;10.85;4.63;;;;;;;;;;6249063;23;20472;-88
2022/03/14 02:25:15;;;;;;;11.15;5.13;;;;;;;;;;6248825;23;20099;-87
2022/03/14 02:27:43;;;;;;;11.02;4.55;;;;;;;;;;6250141;23;20631;-87
2022/03/14 02:30:11;;;;;;;9.52;4.65;;;;;;;;;;6249655;23;20134;-88
2022/03/14 02:32:42;;;;;;;11.63;4.85;;;;;;;;;;6249660;23;20024;-87
2022/03/14 02:35:11;;;;;;;13.55;5.00;;;;;;;;;;6249509;23;20032;-88
2022/03/14 02:37:44;;;;;;;8.43;4.40;;;;;;;;;;6214086;23;20035;-87
2022/03/14 02:40:13;;;;;;;8.70;4.25;;;;;;;;;;6220348;23;20043;-85
2022/03/14 02:42:41;;;;;;;10.10;5.00;;;;;;;;;;6245290;23;20016;-85
2022/03/14 02:45:09;;;;;;;11.57;5.30;;;;;;;;;;6248130;23;20016;-88
2022/03/14 02:47:38;;;;;;;8.98;4.75;;;;;;;;;;6249674;23;20051;-87
2022/03/14 02:50:06;;;;;;;9.77;4.80;;;;;;;;;;6248846;23;20028;-87
2022/03/14 02:52:33;;;;;;;11.30;5.10;;;;;;;;;;6249378;23;20028;-88
2022/03/14 02:55:01;;;;;;;12.65;5.55;;;;;;;;;;6250335;23;20331;-89
2022/03/14 02:57:29;;;;;;;9.93;4.55;;;;;;;;;;6251200;23;20020;-89
2022/03/14 02:59:57;;;;;;;9.38;4.18;;;;;;;;;;6250946;23;20020;-89
2022/03/14 03:02:25;;;;;;;13.68;5.10;;;;;;;;;;6224463;23;20482;-89
2022/03/14 03:04:53;;;;;;;11.32;5.10;;;;;;;;;;6250865;23;20078;-89
2022/03/14 03:07:21;;;;;;;12.27;5.20;;;;;;;;;;6249952;23;20024;-90
2022/03/14 03:09:49;;;;;;;9.70;4.55;;;;;;;;;;6250165;23;20051;-89
2022/03/14 03:12:18;;;;;;;11.98;5.10;;;;;;;;;;6251110;22;20123;-90
2022/03/14 03:14:45;;;;;;;11.07;4.68;;;;;;;;;;6250925;23;20024;-90
2022/03/14 03:17:13;;;;;;;9.63;4.68;;;;;;;;;;6251182;23;20012;-90
2022/03/14 03:19:41;;;;;;;10.80;5.15;;;;;;;;;;6213557;23;20348;-91
2022/03/14 03:22:10;;;;;;;10.82;4.93;;;;;;;;;;6250851;23;20071;-90
2022/03/14 03:24:39;;;;;;;9.75;4.72;;;;;;;;;;6250634;23;20019;-90
2022/03/14 03:27:07;;;;;;;11.38;4.78;;;;;;;;;;6224894;23;20024;-90
2022/03/14 03:29:35;;;;;;;12.80;5.13;;;;;;;;;;6251336;23;20082;-90
2022/03/14 03:32:03;;;;;;;11.07;5.43;;;;;;;;;;6251142;23;20470;-91
2022/03/14 03:34:31;;;;;;;11.52;5.00;;;;;;;;;;6251068;23;20023;-91
2022/03/14 03:36:59;;;;;;;9.05;4.85;;;;;;;;;;6250978;23;20023;-91
2022/03/14 03:39:27;;;;;;;16.00;5.72;;;;;;;;;;6250949;23;20090;-90
2022/03/14 03:41:55;;;;;;;9.95;4.85;;;;;;;;;;6214690;23;20020;-89
2022/03/14 03:44:23;;;;;;;10.75;4.72;;;;;;;;;;6250875;23;20483;-88
2022/03/14 03:46:51;;;;;;;12.63;5.35;;;;;;;;;;6241299;23;20024;-88
2022/03/14 03:49:21;;;;;;;16.27;5.40;;;;;;;;;;6250787;23;20043;-89
2022/03/14 03:51:49;;;;;;;11.65;5.35;;;;;;;;;;6252384;23;20020;-88
2022/03/14 03:54:17;;;;;;;12.95;5.57;;;;;;;;;;6250723;23;20023;-88
2022/03/14 03:56:46;;;;;;;11.77;4.97;;;;;;;;;;6252239;23;20699;-88
2022/03/14 03:59:12;;;;;;;11.25;5.20;;;;;;;;;;6252231;23;20016;-89
2022/03/14 04:01:41;;;;;;;12.70;5.40;;;;;;;;;;6251328;23;20016;-89
2022/03/14 04:04:09;;;;;;;11.27;5.95;;;;;;;;;;6250597;23;20368;-88
2022/03/14 04:06:37;;;;;;;10.13;5.13;;;;;;;;;;6252887;23;20020;-89
2022/03/14 04:09:06;;;;;;;15.85;5.63;;;;;;;;;;6224165;23;20115;-89
2022/03/14 04:11:33;;;;;;;11.82;4.60;;;;;;;;;;6258109;22;20519;-89
2022/03/14 04:14:02;;;;;;;13.18;5.45;;;;;;;;;;6244493;22;20024;-89
2022/03/14 04:16:30;;;;;;;11.32;5.65;;;;;;;;;;6255971;22;20023;-88
2022/03/14 04:18:58;;;;;;;10.63;4.82;;;;;;;;;;6282563;22;20020;-90
2022/03/14 04:21:27;;;;;;;14.80;5.68;;;;;;;;;;6282894;22;20019;-90
2022/03/14 04:23:57;;;;;;;13.25;5.55;;;;;;;;;;6283401;22;20020;-90
2022/03/14 04:26:24;;;;;;;11.02;5.25;;;;;;;;;;6283556;22;20016;-90
2022/03/14 04:28:53;;;;;;;12.43;5.40;;;;;;;;;;6283042;22;20088;-91
2022/03/14 04:31:21;;;;;;;11.52;5.28;;;;;;;;;;6256571;22;20023;-90
2022/03/14 04:33:48;;;;;;;10.85;5.40;;;;;;;;;;6282932;22;20050;-90
2022/03/14 04:36:16;;;;;;;13.00;5.40;;;;;;;;;;6282650;22;20650;-90
2022/03/14 04:38:44;;;;;;;12.27;5.32;;;;;;;;;;6283061;22;20019;-90
2022/03/14 04:41:13;;;;;;;11.27;5.13;;;;;;;;;;6256931;22;20015;-91
2022/03/14 04:43:40;;;;;;;11.68;5.78;;;;;;;;;;6270849;22;20549;-90
2022/03/14 04:46:09;;;;;;;16.70;5.90;;;;;;;;;;6282547;22;20073;-90
2022/03/14 04:48:36;;;;;;;11.93;5.70;;;;;;;;;;6282732;22;20043;-90
2022/03/14 04:51:04;;;;;;;11.88;4.85;;;;;;;;;;6220839;22;20011;-91
2022/03/14 04:53:32;;;;;;;13.02;5.43;;;;;;;;;;6282475;22;20039;-90
2022/03/14 04:56:03;;;;;;;10.80;5.40;;;;;;;;;;6282892;22;20020;-90
2022/03/14 04:58:32;;;;;;;12.95;5.20;;;;;;;;;;6282994;22;20094;-91
2022/03/14 05:01:00;;;;;;;10.60;5.25;;;;;;;;;;6244840;22;20411;-90
2022/03/14 05:03:28;;;;;;;13.85;5.50;;;;;;;;;;6231028;22;20019;-90
2022/03/14 05:05:57;;;;;;;13.15;5.22;;;;;;;;;;6282951;22;20043;-90
2022/03/14 05:08:24;;;;;;;14.85;6.07;;;;;;;;;;6251500;22;20423;-85
2022/03/14 05:10:52;;;;;;;12.55;5.95;;;;;;;;;;6279855;22;20022;-85
2022/03/14 05:13:21;;;;;;;12.73;5.93;;;;;;;;;;6280769;22;20118;-87
2022/03/14 05:15:49;;;;;;;12.82;5.90;;;;;;;;;;6279755;22;20019;-88
2022/03/14 05:18:17;;;;;;;12.38;5.35;;;;;;;;;;6281022;22;20033;-88
2022/03/14 05:20:44;;;;;;;13.80;6.30;;;;;;;;;;6254834;22;20106;-88
2022/03/14 05:23:13;;;;;;;14.05;5.43;;;;;;;;;;6279853;22;20019;-87
2022/03/14 05:25:40;;;;;;;13.45;6.00;;;;;;;;;;6243881;22;20622;-87
2022/03/14 05:28:08;;;;;;;14.73;5.45;;;;;;;;;;6280991;22;20095;-88
2022/03/14 05:30:36;;;;;;;11.77;5.60;;;;;;;;;;6282891;22;20030;-91
2022/03/14 05:33:04;;;;;;;12.43;6.55;;;;;;;;;;6255807;22;20339;-91
2022/03/14 05:35:33;;;;;;;14.30;6.15;;;;;;;;;;6255784;22;20027;-90
2022/03/14 05:38:00;;;;;;;15.02;6.15;;;;;;;;;;6255961;22;20020;-91
2022/03/14 05:40:29;;;;;;;15.40;6.25;;;;;;;;;;6245876;22;20450;-91
2022/03/14 05:42:57;;;;;;;13.93;6.38;;;;;;;;;;6256025;22;20410;-90
2022/03/14 05:45:24;;;;;;;14.43;6.10;;;;;;;;;;6282273;22;20099;-87
2022/03/14 05:47:52;;;;;;;14.60;5.80;;;;;;;;;;6281093;22;20019;-87
2022/03/14 05:50:20;;;;;;;14.85;6.40;;;;;;;;;;6282320;22;20645;-87
2022/03/14 05:52:48;;;;;;;15.00;5.80;;;;;;;;;;6281481;22;20046;-89
2022/03/14 05:55:16;;;;;;;12.80;6.47;;;;;;;;;;6280946;22;20034;-88
2022/03/14 05:57:47;;;;;;;11.75;6.20;;;;;;;;;;6277005;22;20435;-85
2022/03/14 06:00:24;;;;;;;13.13;6.35;;;;;;;;;;6277133;22;20182;-85
2022/03/14 06:02:52;;;;;;;17.58;6.57;;;;;;;;;;6276601;22;20022;-85
2022/03/14 06:05:22;;;;;;;15.25;6.20;;;;;;;;;;6278532;22;20751;-84
2022/03/14 06:07:49;;;;;;;14.75;5.55;;;;;;;;;;6278189;22;20016;-85
2022/03/14 06:10:17;;;;;;;14.27;6.43;;;;;;;;;;6279341;22;20030;-84
2022/03/14 06:12:45;;;;;;;10.68;5.03;;;;;;;;;;6270163;22;20416;-85
2022/03/14 06:15:13;;;;;;;16.30;7.45;;;;;;;;;;6278016;22;20023;-82
2022/03/14 06:17:41;;;;;;;19.00;7.65;;;;;;;;;;6278944;22;20137;-83
2022/03/14 06:20:13;;;;;;;16.45;6.75;;;;;;;;;;6278465;22;20046;-82
2022/03/14 06:22:44;;;;;;;13.77;5.82;;;;;;;;;;6278526;22;20019;-83
2022/03/14 06:25:11;;;;;;;18.35;6.82;;;;;;;;;;6278318;22;20855;-82
2022/03/14 06:27:39;;;;;;;17.13;6.78;;;;;;;;;;6278110;22;20050;-83
2022/03/14 06:30:07;;;;;;;15.25;7.05;;;;;;;;;;6279166;22;20039;-82
2022/03/14 06:32:36;;;;;;;14.48;6.88;;;;;;;;;;6277849;22;20019;-83
2022/03/14 06:35:06;;;;;;;13.88;5.90;;;;;;;;;;6278499;22;20019;-82
2022/03/14 06:37:35;;;;;;;16.17;7.07;;;;;;;;;;6277246;22;20020;-82
2022/03/14 06:40:03;;;;;;;17.88;6.85;;;;;;;;;;6278526;22;20016;-82
2022/03/14 06:42:32;;;;;;;17.88;7.50;;;;;;;;;;6278709;22;20016;-84
2022/03/14 06:45:01;;;;;;;17.52;7.43;;;;;;;;;;6250402;22;20026;-83
2022/03/14 06:47:29;;;;;;;19.25;7.50;;;;;;;;;;6275514;22;20466;-83
2022/03/14 06:49:58;;;;;;;12.82;6.32;;;;;;;;;;6278237;22;20019;-85
2022/03/14 06:52:25;;;;;;;16.85;7.20;;;;;;;;;;6275828;22;20028;-85
2022/03/14 06:54:53;;;;;;;15.05;6.97;;;;;;;;;;6275772;22;20126;-82
2022/03/14 06:57:21;;;;;;;19.45;7.70;;;;;;;;;;6276386;22;20024;-83
2022/03/14 06:59:49;;;;;;;16.35;7.28;;;;;;;;;;6277691;22;20020;-83
2022/03/14 07:02:17;;;;;;;13.93;7.03;;;;;;;;;;6274581;22;20020;-82
2022/03/14 07:04:45;;;;;;;16.65;6.95;;;;;;;;;;6278357;22;20393;-85
2022/03/14 07:07:13;;;;;;;15.73;6.97;;;;;;;;;;6278870;22;20016;-84
2022/03/14 07:09:41;;;;;;;14.02;6.53;;;;;;;;;;6240487;22;20019;-85
2022/03/14 07:12:10;;;;;;;17.80;7.97;;;;;;;;;;6278012;22;20734;-85
2022/03/14 07:14:37;;;;;;;15.32;7.35;;;;;;;;;;6251198;22;20032;-85
2022/03/14 07:17:06;;;;;;;15.60;7.80;;;;;;;;;;6277092;22;20135;-85
2022/03/14 07:19:35;;;;;;;16.77;7.45;;;;;;;;;;6275501;22;20081;-85
2022/03/14 07:22:03;;;;;;;14.32;6.80;;;;;;;;;;6278940;22;20098;-84
2022/03/14 07:24:32;;;;;;;18.13;7.15;;;;;;;;;;6278266;22;20015;-85
2022/03/14 07:26:59;;;;;;;17.15;7.45;;;;;;;;;;6279479;22;20019;-84
2022/03/14 07:29:27;;;;;;;12.32;5.45;;;;;;;;;;6279275;22;20030;-84
2022/03/14 07:31:55;;;;;;;14.63;6.28;;;;;;;;;;6275760;22;20044;-84
2022/03/14 07:34:23;;;;;;;15.07;6.72;;;;;;;;;;6278096;22;20020;-84
2022/03/14 07:36:51;;;;;;;17.90;6.72;;;;;;;;;;6270522;22;20058;-84
2022/03/14 07:39:19;;;;;;;15.20;7.22;;;;;;;;;;6278887;22;20026;-85
2022/03/14 07:41:47;;;;;;;15.18;7.15;;;;;;;;;;6274757;22;20427;-85
2022/03/14 07:44:15;;;;;;;20.60;8.02;;;;;;;;;;6273703;22;20020;-86
2022/03/14 07:46:43;;;;;;;15.88;7.25;;;;;;;;;;6264904;22;20089;-85
2022/03/14 07:49:12;;;;;;;15.30;7.35;;;;;;;;;;6276682;22;20461;-85
2022/03/14 07:51:40;;;;;;;17.58;7.35;;;;;;;;;;6275794;22;20094;-85
2022/03/14 07:54:07;;;;;;;17.38;7.80;;;;;;;;;;6277287;22;20031;-85
2022/03/14 07:56:35;;;;;;;16.00;7.68;;;;;;;;;;6276386;22;20020;-84
2022/03/14 07:59:03;;;;;;;15.50;7.40;;;;;;;;;;6275199;22;20355;-83
2022/03/14 08:01:31;;;;;;;16.33;8.20;;;;;;;;;;6275115;22;20029;-84
2022/03/14 08:04:00;;;;;;;14.82;7.18;;;;;;;;;;6273771;22;20019;-84
2022/03/14 08:06:27;;;;;;;20.13;7.50;;;;;;;;;;6276371;22;20451;-84
2022/03/14 08:08:58;;;;;;;16.25;6.55;;;;;;;;;;6276645;22;20119;-83
2022/03/14 08:11:30;;;;;;;20.33;8.30;;;;;;;;;;6275628;22;20457;-84
2022/03/14 08:13:58;;;;;;;16.50;7.20;;;;;;;;;;6275731;22;20094;-84
2022/03/14 08:16:25;;;;;;;19.13;6.95;;;;;;;;;;6272488;22;20043;-84
2022/03/14 08:18:55;;;;;;;17.98;7.30;;;;;;;;;;6275776;22;20029;-83
2022/03/14 08:21:23;;;;;;;14.10;7.32;;;;;;;;;;6275638;22;20122;-84
2022/03/14 08:23:51;;;;;;;17.63;7.63;;;;;;;;;;6275446;22;20039;-83
2022/03/14 08:26:21;;;;;;;15.43;7.70;;;;;;;;;;6239218;22;20027;-83
2022/03/14 08:28:49;;;;;;;16.20;6.70;;;;;;;;;;6278134;22;20077;-83
2022/03/14 08:31:21;;;;;;;17.40;6.78;;;;;;;;;;6275564;22;20027;-84
2022/03/14 08:33:49;;;;;;;17.02;8.07;;;;;;;;;;6275153;22;20011;-84
2022/03/14 08:36:20;;;;;;;13.57;6.45;;;;;;;;;;6275090;22;20050;-84
2022/03/14 08:38:47;;;;;;;14.85;7.15;;;;;;;;;;6249776;22;20458;-85
2022/03/14 08:41:16;;;;;;;12.60;6.80;;;;;;;;;;6274801;22;20095;-84
2022/03/14 08:43:44;;;;;;;16.08;7.40;;;;;;;;;;6276567;22;20043;-84
2022/03/14 08:46:14;;;;;;;14.80;7.75;;;;;;;;;;6276802;22;20026;-84
2022/03/14 08:48:41;;;;;;;14.23;7.03;;;;;;;;;;6276316;22;20031;-84
2022/03/14 08:51:09;;;;;;;13.07;7.13;;;;;;;;;;6278538;22;20107;-84
2022/03/14 08:53:37;;;;;;;18.38;7.38;;;;;;;;;;6275339;22;20105;-84
2022/03/14 08:56:10;;;;;;;14.05;6.90;;;;;;;;;;6276280;22;20043;-84
2022/03/14 08:58:37;;;;;;;14.63;6.53;;;;;;;;;;6249197;22;20091;-84
2022/03/14 09:01:07;;;;;;;16.60;7.07;;;;;;;;;;6264157;22;20035;-84
2022/03/14 09:03:35;;;;;;;12.52;6.90;;;;;;;;;;6265324;22;20460;-84
2022/03/14 09:06:04;;;;;;;16.10;7.68;;;;;;;;;;6276920;22;20019;-84
2022/03/14 09:08:32;;;;;;;12.90;6.70;;;;;;;;;;6276281;22;20020;-84
2022/03/14 09:11:01;;;;;;;13.68;6.95;;;;;;;;;;6276416;22;20038;-85
2022/03/14 09:13:28;;;;;;;14.13;7.28;;;;;;;;;;6271782;22;20126;-84
2022/03/14 09:15:55;;;;;;;14.13;7.00;;;;;;;;;;6277121;22;20023;-84
2022/03/14 09:18:27;;;;;;;15.77;7.63;;;;;;;;;;6275194;22;20022;-84
2022/03/14 09:20:53;;;;;;;15.13;6.53;;;;;;;;;;6276459;22;20061;-84
2022/03/14 09:23:21;;;;;;;16.45;7.18;;;;;;;;;;6275663;22;20015;-84
2022/03/14 09:25:52;;;;;;;14.57;7.45;;;;;;;;;;6276343;22;20064;-84
2022/03/14 09:28:20;;;;;;;16.02;7.85;;;;;;;;;;6276885;22;20310;-84
2022/03/14 09:30:47;;;;;;;14.55;7.90;;;;;;;;;;6276474;22;20034;-84
2022/03/14 09:33:15;;;;;;;14.02;7.30;;;;;;;;;;6277266;22;20020;-84
2022/03/14 09:35:42;;;;;;;15.07;7.70;;;;;;;;;;6278447;22;20333;-84
2022/03/14 09:38:14;;;;;;;16.02;7.40;;;;;;;;;;6275147;22;20020;-84
2022/03/14 09:40:44;;;;;;;14.40;7.60;;;;;;;;;;6250053;22;20026;-85
2022/03/14 09:43:15;;;;;;;13.63;7.00;;;;;;;;;;6274702;22;20111;-85
2022/03/14 09:45:46;;;;;;;14.93;7.75;;;;;;;;;;6277213;22;20019;-84
2022/03/14 09:48:15;;;;;;;15.55;7.60;;;;;;;;;;6276248;22;20030;-85
2022/03/14 09:50:45;;;;;;;15.70;7.70;;;;;;;;;;6267887;22;20027;-84
2022/03/14 09:53:15;;;;;;;16.60;7.90;;;;;;;;;;6275767;22;20016;-85
2022/03/14 09:55:46;;;;;;;19.38;7.30;;;;;;;;;;6275890;22;20019;-84
2022/03/14 09:58:19;;;;;;;15.48;7.70;;;;;;;;;;6276273;22;20036;-84
2022/03/14 10:00:47;;;;;;;13.75;7.72;;;;;;;;;;6277519;22;20019;-84
2022/03/14 10:03:22;;;;;;;16.00;7.53;;;;;;;;;;6275288;22;20728;-84
2022/03/14 10:05:50;;;;;;;14.55;7.60;;;;;;;;;;6277509;22;20026;-84
2022/03/14 10:08:18;;;;;;;15.15;7.43;;;;;;;;;;6277233;22;20534;-84
2022/03/14 10:10:46;;;;;;;11.40;6.55;;;;;;;;;;6277010;22;20019;-84
2022/03/14 10:13:37;;;;;;;18.33;7.55;;;;;;;;;;6275106;22;20115;-83
2022/03/14 10:16:05;;;;;;;14.63;7.57;;;;;;;;;;6274475;22;20053;-84
2022/03/14 10:18:37;;;;;;;16.15;7.68;;;;;;;;;;6255351;22;20028;-84
2022/03/14 10:21:06;;;;;;;16.98;7.82;;;;;;;;;;6276110;22;20092;-84
2022/03/14 10:23:41;;;;;;;14.50;7.45;;;;;;;;;;6274095;22;20041;-84
2022/03/14 10:26:15;;;;;;;12.48;7.07;;;;;;;;;;6273192;22;20319;-84
2022/03/14 10:28:48;;;;;;;14.77;7.82;;;;;;;;;;6275179;22;20494;-84
2022/03/14 10:31:35;;;;;;;15.88;7.50;;;;;;;;;;6273767;22;20374;-84
2022/03/14 10:34:06;;;;;;;15.07;7.35;;;;;;;;;;6276365;22;20444;-84
2022/03/14 10:36:44;;;;;;;14.63;7.20;;;;;;;;;;6274395;22;20023;-84
2022/03/14 10:39:13;;;;;;;14.05;7.45;;;;;;;;;;6275647;22;20112;-84
2022/03/14 10:41:41;;;;;;;16.48;6.82;;;;;;;;;;6275258;22;20034;-84
2022/03/14 10:44:29;;;;;;;11.93;6.80;;;;;;;;;;6275947;22;20033;-84
2022/03/14 10:47:08;;;;;;;14.35;7.55;;;;;;;;;;6275070;22;20089;-84
2022/03/14 10:49:38;;;;;;;14.25;7.05;;;;;;;;;;6275580;22;20482;-84
2022/03/14 10:52:13;;;;;;;15.75;7.40;;;;;;;;;;6275384;22;20131;-84
2022/03/14 10:54:41;;;;;;;13.48;7.38;;;;;;;;;;6258013;22;20016;-84
2022/03/14 10:57:17;;;;;;;14.00;7.35;;;;;;;;;;6275080;22;20562;-84
2022/03/14 10:59:51;;;;;;;13.95;7.38;;;;;;;;;;6274000;22;20085;-84
2022/03/14 11:02:26;;;;;;;16.23;7.72;;;;;;;;;;6276478;22;20155;-84
2022/03/14 11:04:57;;;;;;;13.50;7.38;;;;;;;;;;6276945;22;20015;-84
2022/03/14 11:07:31;;;;;;;14.40;6.78;;;;;;;;;;6275945;22;20030;-84
2022/03/14 11:10:00;;;;;;;14.45;7.10;;;;;;;;;;6273806;22;20027;-84
2022/03/14 11:12:30;;;;;;;14.27;7.70;;;;;;;;;;6269985;22;20119;-84
2022/03/14 11:15:01;;;;;;;14.07;7.18;;;;;;;;;;6279696;22;20481;-84
2022/03/14 11:17:33;;;;;;;15.02;6.95;;;;;;;;;;6275055;22;20027;-84
2022/03/14 11:20:22;;;;;;;13.68;7.25;;;;;;;;;;6275727;22;20020;-84
2022/03/14 11:22:49;;;;;;;19.23;7.68;;;;;;;;;;6274797;22;20030;-84
2022/03/14 11:25:17;;;;;;;15.02;7.32;;;;;;;;;;6276786;22;20012;-84
2022/03/14 11:27:45;;;;;;;13.95;6.80;;;;;;;;;;6276988;22;20023;-84
2022/03/14 11:30:13;;;;;;;14.82;7.13;;;;;;;;;;6278065;22;20494;-84
2022/03/14 11:32:41;;;;;;;15.57;7.20;;;;;;;;;;6278166;22;20081;-84
2022/03/14 11:35:11;;;;;;;13.27;7.43;;;;;;;;;;6280227;22;20395;-84
2022/03/14 11:37:42;;;;;;;13.00;6.75;;;;;;;;;;6278095;22;20023;-84
2022/03/14 11:40:11;;;;;;;16.55;7.35;;;;;;;;;;6265192;22;20062;-83
2022/03/14 11:42:38;;;;;;;15.52;7.18;;;;;;;;;;6267234;22;20476;-84
2022/03/14 11:45:14;;;;;;;18.05;7.43;;;;;;;;;;6279571;22;20016;-84
2022/03/14 11:47:42;;;;;;;14.85;6.57;;;;;;;;;;6275521;22;20019;-84
2022/03/14 11:50:09;;;;;;;14.75;7.28;;;;;;;;;;6274992;22;20078;-84
2022/03/14 11:52:41;;;;;;;12.48;7.07;;;;;;;;;;6274744;22;20016;-84
2022/03/14 11:55:48;;;;;;;14.32;7.25;;;;;;;;;;6275652;22;20050;-84
2022/03/14 11:58:41;;;;;;;11.20;6.95;;;;;;;;;;6266484;22;20490;-84
2022/03/14 12:01:20;;;;;;;11.98;7.00;;;;;;;;;;6274963;22;20027;-84
2022/03/14 12:03:52;;;;;;;14.43;7.57;;;;;;;;;;6274702;22;20015;-84
2022/03/14 12:06:45;;;;;;;14.00;6.40;;;;;;;;;;6276699;22;20065;-84
2022/03/14 12:09:25;;;;;;;15.10;7.03;;;;;;;;;;6280447;22;20370;-83
2022/03/14 12:11:54;;;;;;;12.15;7.03;;;;;;;;;;6280209;22;20015;-83
2022/03/14 12:14:44;;;;;;;13.57;7.13;;;;;;;;;;6277014;22;20118;-83
2022/03/14 12:17:13;;;;;;;13.65;6.72;;;;;;;;;;6265466;22;20458;-83
2022/03/14 12:19:54;;;;;;;15.32;7.30;;;;;;;;;;6274950;22;20102;-83
2022/03/14 12:22:29;;;;;;;17.60;7.72;;;;;;;;;;6274300;22;20030;-82
2022/03/14 12:24:57;;;;;;;17.17;7.65;;;;;;;;;;6277918;22;20046;-83
2022/03/14 12:27:31;;;;;;;13.13;6.78;;;;;;;;;;6277530;22;20579;-83
2022/03/14 12:29:59;;;;;;;12.38;6.50;;;;;;;;;;6275883;22;20043;-84
2022/03/14 12:32:26;;;;;;;11.18;6.30;;;;;;;;;;6273201;22;20058;-84
2022/03/14 12:34:55;;;;;;;12.45;6.85;;;;;;;;;;6276496;22;20099;-84
2022/03/14 12:37:25;;;;;;;13.95;7.15;;;;;;;;;;6275926;22;20043;-83
2022/03/14 12:39:52;;;;;;;10.55;6.20;;;;;;;;;;6275751;22;20022;-84
2022/03/14 12:42:25;;;;;;;14.38;6.80;;;;;;;;;;6275234;22;20019;-84
2022/03/14 12:45:17;;;;;;;14.82;6.82;;;;;;;;;;6276040;22;20102;-84
2022/03/14 12:47:54;;;;;;;17.05;6.85;;;;;;;;;;6272647;22;20077;-84
2022/03/14 12:50:51;;;;;;;11.05;6.47;;;;;;;;;;6275110;22;20089;-84
2022/03/14 12:53:30;;;;;;;10.93;5.80;;;;;;;;;;6277818;22;20453;-84
2022/03/14 12:56:12;;;;;;;10.85;6.53;;;;;;;;;;6274959;22;20047;-84
2022/03/14 12:58:51;;;;;;;15.18;7.13;;;;;;;;;;6274525;22;20182;-84
2022/03/14 13:01:21;;;;;;;10.13;6.07;;;;;;;;;;6262638;22;20028;-84
2022/03/14 13:03:49;;;;;;;13.40;6.57;;;;;;;;;;6274983;22;20098;-84
2022/03/14 13:06:26;;;;;;;11.77;7.10;;;;;;;;;;6275726;22;20423;-84
2022/03/14 13:08:52;;;;;;;13.95;7.30;;;;;;;;;;6276344;22;20019;-84
2022/03/14 13:11:20;;;;;;;14.35;7.25;;;;;;;;;;6277829;22;20098;-84
2022/03/14 13:13:48;;;;;;;13.98;7.35;;;;;;;;;;6275427;22;20439;-84
2022/03/14 13:16:19;;;;;;;17.05;7.45;;;;;;;;;;6274977;22;20106;-84
2022/03/14 13:18:49;;;;;;;13.20;8.00;;;;;;;;;;6277197;22;20350;-84
2022/03/14 13:21:21;;;;;;;16.20;8.50;;;;;;;;;;6276911;22;20455;-84
2022/03/14 13:24:02;;;;;;;16.02;9.05;;;;;;;;;;6274984;22;20096;-84
2022/03/14 13:26:36;;;;;;;14.05;8.27;;;;;;;;;;6274776;22;20132;-84
2022/03/14 13:29:05;;;;;;;17.92;8.13;;;;;;;;;;6276847;22;20028;-84
2022/03/14 13:31:47;;;;;;;16.17;8.80;;;;;;;;;;6275730;22;20146;-84
2022/03/14 13:34:17;;;;;;;16.92;8.77;;;;;;;;;;6276758;22;20100;-84
2022/03/14 13:36:52;;;;;;;14.50;8.02;;;;;;;;;;6271587;22;20024;-84
2022/03/14 13:39:20;;;;;;;13.15;7.95;;;;;;;;;;6273914;22;20844;-84
2022/03/14 13:41:50;;;;;;;16.40;8.27;;;;;;;;;;6265524;22;20465;-84
2022/03/14 13:44:21;;;;;;;15.35;8.60;;;;;;;;;;6274869;22;20111;-85
2022/03/14 13:46:51;;;;;;;13.02;7.90;;;;;;;;;;6276420;22;20019;-85
2022/03/14 13:49:22;;;;;;;16.63;8.43;;;;;;;;;;6275913;22;20023;-84
2022/03/14 13:51:59;;;;;;;14.98;8.23;;;;;;;;;;6276824;22;20077;-85
2022/03/14 13:54:30;;;;;;;14.93;8.10;;;;;;;;;;6273512;22;20012;-85
2022/03/14 13:57:01;;;;;;;18.05;8.75;;;;;;;;;;6272943;22;20016;-85
2022/03/14 13:59:38;;;;;;;14.10;7.97;;;;;;;;;;6274773;22;20119;-83
2022/03/14 14:02:09;;;;;;;16.40;9.05;;;;;;;;;;6274361;22;20031;-83
2022/03/14 14:04:45;;;;;;;13.70;8.43;;;;;;;;;;6275768;22;20023;-83
2022/03/14 14:07:18;;;;;;;23.10;8.65;;;;;;;;;;6278207;22;20026;-84
2022/03/14 14:10:14;;;;;;;18.42;9.00;;;;;;;;;;6275351;22;20046;-85
2022/03/14 14:12:57;;;;;;;16.38;9.55;;;;;;;;;;6276144;22;20094;-86
2022/03/14 14:15:45;;;;;;;20.00;9.90;;;;;;;;;;6273708;22;20082;-85
2022/03/14 14:18:19;;;;;;;18.02;9.50;;;;;;;;;;6273953;22;20050;-85
2022/03/14 14:20:48;;;;;;;21.35;9.65;;;;;;;;;;6274862;22;20019;-84
2022/03/14 14:23:17;;;;;;;17.75;8.82;;;;;;;;;;6274529;22;20451;-85
2022/03/14 14:26:03;;;;;;;22.23;10.07;;;;;;;;;;6274366;22;20123;-85
2022/03/14 14:28:31;;;;;;;19.35;11.35;;;;;;;;;;6275812;22;20023;-84
2022/03/14 14:31:00;;;;;;;19.15;10.00;;;;;;;;;;6272344;22;20236;-84
2022/03/14 14:33:33;;;;;;;17.75;9.68;;;;;;;;;;6269902;22;20743;-84
2022/03/14 14:36:03;;;;;;;22.60;11.35;;;;;;;;;;6274640;22;20026;-84
2022/03/14 14:38:33;;;;;;;19.10;10.77;;;;;;;;;;6275689;22;20393;-84
2022/03/14 14:41:08;;;;;;;21.65;12.00;;;;;;;;;;6277020;22;20459;-85
2022/03/14 14:43:37;;;;;;;19.95;10.77;;;;;;;;;;6273762;22;20030;-85
2022/03/14 14:46:05;;;;;;;20.77;11.32;;;;;;;;;;6274772;22;20119;-84
2022/03/14 14:48:33;;;;;;;20.70;11.45;;;;;;;;;;6270839;22;20015;-84